Time;durP1;ratioP1;P1;durP2;ratioP2;P2;SDS_P1;SDS_P2;PMS_P1;PMS_P2;Temp;Humidity;BMP_temperature;BMP_pressure;BME280_temperature;BME280_humidity;BME280_pressure;Samples;Min_cycle;Max_cycle;Signal;HPM_P1;HPM_P2
2022/01/06 00:01:34;;;;;;;9.38;1.73;;;-1.00;99.90;;;;;;5019652;28;20430;-72
2022/01/06 00:04:00;;;;;;;12.18;1.38;;;-1.00;99.90;;;;;;5019628;28;20092;-71
2022/01/06 00:06:26;;;;;;;6.13;1.90;;;-0.90;99.90;;;;;;5019575;28;20037;-71
2022/01/06 00:08:54;;;;;;;5.57;1.65;;;-0.90;99.90;;;;;;5018100;28;20037;-71
2022/01/06 00:11:20;;;;;;;10.15;3.53;;;-0.80;99.90;;;;;;5019691;28;20031;-72
2022/01/06 00:24:28;;;;;;;17.20;2.40;;;-0.80;99.90;;;;;;5019811;28;20029;-76
2022/01/06 00:26:54;;;;;;;9.00;1.77;;;-0.90;99.90;;;;;;5019378;28;20022;-75
2022/01/06 00:29:20;;;;;;;13.75;2.67;;;-0.90;99.90;;;;;;5019427;28;20048;-75
2022/01/06 00:31:46;;;;;;;13.45;2.15;;;-1.10;99.90;;;;;;5019905;28;20526;-76
2022/01/06 00:34:12;;;;;;;4.68;1.65;;;-1.10;99.90;;;;;;5019376;28;20049;-75
2022/01/06 00:36:38;;;;;;;5.65;1.60;;;-1.20;99.90;;;;;;5019345;28;20514;-76
2022/01/06 00:39:05;;;;;;;13.07;2.92;;;-1.40;99.90;;;;;;5019543;28;20033;-75
2022/01/06 00:41:35;;;;;;;8.13;1.30;;;-1.40;99.90;;;;;;5018765;28;20485;-75
2022/01/06 00:44:02;;;;;;;9.55;1.60;;;-1.50;99.90;;;;;;4980555;28;20498;-75
2022/01/06 00:46:27;;;;;;;14.43;1.85;;;-1.50;99.90;;;;;;4979054;28;20037;-75
2022/01/06 00:48:53;;;;;;;12.60;1.83;;;-1.50;99.90;;;;;;5001309;28;20018;-75
2022/01/06 00:51:18;;;;;;;9.15;2.05;;;-1.40;99.90;;;;;;4996483;28;20033;-75
2022/01/06 00:53:44;;;;;;;17.35;1.75;;;-1.50;99.90;;;;;;4979023;28;20057;-76
2022/01/06 00:56:10;;;;;;;11.23;2.08;;;-1.50;99.90;;;;;;4996876;28;20026;-75
2022/01/06 00:58:35;;;;;;;16.50;2.72;;;-1.60;99.90;;;;;;4996345;28;20034;-75
2022/01/06 01:01:01;;;;;;;10.00;1.85;;;-1.60;99.90;;;;;;5009896;28;20032;-75
2022/01/06 01:03:27;;;;;;;12.90;1.95;;;-1.70;99.90;;;;;;5015968;28;20030;-75
2022/01/06 01:05:55;;;;;;;12.57;1.98;;;-1.70;99.90;;;;;;5016275;28;20050;-75
2022/01/06 01:08:21;;;;;;;7.80;1.88;;;-1.80;99.90;;;;;;5016042;28;20022;-75
2022/01/06 01:10:48;;;;;;;7.10;1.88;;;-1.80;99.90;;;;;;5015568;28;20532;-75
2022/01/06 01:13:15;;;;;;;15.27;2.28;;;-1.80;99.90;;;;;;5015930;28;20033;-75
2022/01/06 01:15:50;;;;;;;14.07;1.48;;;-1.80;99.90;;;;;;5015698;28;20038;-75
2022/01/06 01:18:19;;;;;;;6.78;2.25;;;-1.80;99.90;;;;;;5011821;28;20041;-75
2022/01/06 01:20:46;;;;;;;14.30;1.67;;;-1.80;99.90;;;;;;5014803;28;20036;-75
2022/01/06 01:23:11;;;;;;;13.30;2.20;;;-1.80;99.90;;;;;;5015490;28;20108;-75
2022/01/06 01:25:37;;;;;;;13.45;3.08;;;-1.80;99.90;;;;;;5015522;28;20069;-75
2022/01/06 01:28:04;;;;;;;15.35;2.15;;;-1.80;99.90;;;;;;5015564;28;20030;-75
2022/01/06 01:30:38;;;;;;;13.25;2.42;;;-1.80;99.90;;;;;;4996586;28;20024;-75
2022/01/06 01:33:05;;;;;;;9.25;1.63;;;-1.70;99.90;;;;;;5015221;28;20014;-75
2022/01/06 01:35:32;;;;;;;15.50;2.47;;;-1.60;99.90;;;;;;4997702;28;20034;-75
2022/01/06 01:37:59;;;;;;;17.02;2.33;;;-1.50;99.90;;;;;;5015208;28;20039;-75
2022/01/06 01:40:25;;;;;;;4.72;1.52;;;-1.40;99.90;;;;;;5015111;28;20026;-75
2022/01/06 01:42:50;;;;;;;14.02;1.85;;;-1.30;99.90;;;;;;5015126;28;20045;-75
2022/01/06 01:45:17;;;;;;;14.02;2.15;;;-1.20;99.90;;;;;;5015122;28;20026;-75
2022/01/06 01:47:45;;;;;;;11.98;2.35;;;-1.00;99.90;;;;;;5014972;28;20037;-75
2022/01/06 01:50:16;;;;;;;11.27;2.22;;;-0.90;99.90;;;;;;5014900;28;20022;-75
2022/01/06 01:52:54;;;;;;;12.05;2.47;;;-0.70;99.90;;;;;;4997540;28;20359;-75
2022/01/06 01:55:24;;;;;;;13.35;2.38;;;-0.70;99.90;;;;;;5014747;28;20025;-75
2022/01/06 01:57:51;;;;;;;8.32;1.75;;;-0.70;99.90;;;;;;5014866;28;20478;-75
2022/01/06 02:00:18;;;;;;;9.63;1.95;;;-0.70;99.90;;;;;;4997107;28;20053;-76
2022/01/06 02:02:44;;;;;;;9.98;2.40;;;-0.70;99.90;;;;;;5014706;28;20418;-75
2022/01/06 02:05:10;;;;;;;10.73;2.00;;;-0.70;99.90;;;;;;4997118;28;20061;-75
2022/01/06 02:07:41;;;;;;;13.10;1.92;;;-0.80;99.90;;;;;;5014867;28;20062;-75
2022/01/06 02:10:09;;;;;;;8.82;2.30;;;-0.80;99.90;;;;;;5014528;28;20420;-75
2022/01/06 02:12:38;;;;;;;9.90;2.10;;;-0.90;99.90;;;;;;5014585;28;20416;-75
2022/01/06 02:15:08;;;;;;;15.98;2.00;;;-0.90;99.90;;;;;;5014492;28;20429;-75
2022/01/06 02:17:34;;;;;;;12.90;2.00;;;-1.00;99.90;;;;;;5014395;28;20026;-75
2022/01/06 02:20:02;;;;;;;9.13;1.77;;;-1.10;99.90;;;;;;5014214;28;20522;-75
2022/01/06 02:22:28;;;;;;;8.82;2.08;;;-1.30;99.90;;;;;;5014453;28;20030;-75
2022/01/06 02:24:54;;;;;;;14.18;2.17;;;-1.50;99.90;;;;;;5014336;28;20080;-75
2022/01/06 02:27:21;;;;;;;11.02;1.90;;;-1.60;99.90;;;;;;5014217;28;20474;-75
2022/01/06 02:29:48;;;;;;;7.63;1.65;;;-1.60;99.90;;;;;;5014660;28;20358;-75
2022/01/06 02:32:16;;;;;;;3.33;1.48;;;-1.70;99.90;;;;;;5014246;28;20105;-75
2022/01/06 02:34:46;;;;;;;7.43;1.52;;;-1.80;99.90;;;;;;5014713;28;20057;-75
2022/01/06 02:37:15;;;;;;;7.40;1.45;;;-1.90;99.90;;;;;;4996526;28;20069;-75
2022/01/06 02:39:44;;;;;;;5.50;1.63;;;-2.00;99.90;;;;;;5013483;28;20382;-75
2022/01/06 02:42:11;;;;;;;10.10;1.83;;;-2.00;99.90;;;;;;4996411;28;20075;-75
2022/01/06 02:44:39;;;;;;;9.23;2.08;;;-2.10;99.90;;;;;;5014286;28;20022;-75
2022/01/06 02:47:08;;;;;;;7.03;1.80;;;-2.10;99.90;;;;;;5014464;28;20422;-75
2022/01/06 02:49:34;;;;;;;7.47;2.00;;;-2.10;99.90;;;;;;5013832;28;20053;-74
2022/01/06 02:52:00;;;;;;;24.05;2.47;;;-2.10;99.90;;;;;;5013887;28;20033;-75
2022/01/06 02:54:26;;;;;;;6.90;1.60;;;-2.10;99.90;;;;;;5013889;28;20025;-75
2022/01/06 02:56:52;;;;;;;3.05;1.55;;;-2.00;99.90;;;;;;5013864;28;20101;-75
2022/01/06 02:59:18;;;;;;;7.97;1.55;;;-2.10;99.90;;;;;;5013755;28;20105;-75
2022/01/06 03:01:44;;;;;;;8.05;1.67;;;-2.10;99.90;;;;;;5014033;28;20080;-75
2022/01/06 03:04:11;;;;;;;5.97;1.52;;;-2.20;99.90;;;;;;5013765;28;20045;-74
2022/01/06 03:06:37;;;;;;;9.73;2.78;;;-2.30;99.90;;;;;;5013096;28;20030;-75
2022/01/06 03:09:04;;;;;;;4.43;1.35;;;-2.20;99.90;;;;;;5013562;28;20516;-75
2022/01/06 03:11:29;;;;;;;12.52;1.67;;;-2.20;99.90;;;;;;5013919;28;20057;-75
2022/01/06 03:13:56;;;;;;;9.25;2.28;;;-2.10;99.90;;;;;;5013834;28;20058;-75
2022/01/06 03:16:22;;;;;;;6.45;1.73;;;-2.00;99.90;;;;;;5013563;28;20022;-75
2022/01/06 03:18:47;;;;;;;5.55;2.00;;;-1.90;99.90;;;;;;5013850;28;20034;-75
2022/01/06 03:21:13;;;;;;;7.47;2.03;;;-1.90;99.90;;;;;;5012864;28;20044;-75
2022/01/06 03:23:39;;;;;;;14.70;1.70;;;-2.00;99.90;;;;;;5013494;28;20048;-74
2022/01/06 03:26:04;;;;;;;6.18;1.65;;;-2.00;99.90;;;;;;4995803;28;20026;-74
2022/01/06 03:28:30;;;;;;;7.82;1.77;;;-2.20;99.90;;;;;;5013333;28;20049;-74
2022/01/06 03:30:55;;;;;;;7.18;1.67;;;-2.20;99.90;;;;;;5013012;28;20079;-74
2022/01/06 03:33:21;;;;;;;6.30;2.25;;;-2.20;99.90;;;;;;5013618;28;20068;-74
2022/01/06 03:35:47;;;;;;;4.47;1.77;;;-2.20;99.90;;;;;;5013396;28;20384;-74
2022/01/06 03:38:13;;;;;;;11.23;2.15;;;-2.30;99.90;;;;;;5013380;28;20432;-74
2022/01/06 03:40:39;;;;;;;6.28;1.85;;;-2.30;99.90;;;;;;5013814;28;20022;-74
2022/01/06 03:43:06;;;;;;;10.55;1.77;;;-2.40;99.90;;;;;;4995683;28;20054;-75
2022/01/06 03:45:33;;;;;;;9.95;1.63;;;-2.30;99.90;;;;;;4995676;28;20568;-74
2022/01/06 03:47:59;;;;;;;9.52;2.60;;;-2.30;99.90;;;;;;4995637;28;20052;-74
2022/01/06 03:50:25;;;;;;;6.63;2.53;;;-2.40;99.90;;;;;;5013177;28;20072;-74
2022/01/06 03:52:50;;;;;;;10.38;1.92;;;-2.30;99.90;;;;;;5013220;28;20026;-75
2022/01/06 03:55:17;;;;;;;7.28;1.92;;;-2.30;99.90;;;;;;4995584;28;20061;-74
2022/01/06 03:57:43;;;;;;;29.38;3.17;;;-2.30;99.90;;;;;;5013459;28;20366;-75
2022/01/06 04:00:12;;;;;;;17.88;3.10;;;-2.30;99.90;;;;;;5013260;28;20040;-74
2022/01/06 04:02:38;;;;;;;5.63;1.50;;;-2.20;99.90;;;;;;4995539;28;20499;-74
2022/01/06 04:05:05;;;;;;;11.25;2.05;;;-2.00;99.90;;;;;;5013005;28;20402;-75
2022/01/06 04:07:32;;;;;;;18.40;2.22;;;-1.90;99.90;;;;;;4995417;28;20022;-74
2022/01/06 04:09:58;;;;;;;8.27;1.95;;;-1.80;99.90;;;;;;5010878;28;20050;-74
2022/01/06 04:12:24;;;;;;;13.65;2.17;;;-1.70;99.90;;;;;;5009564;28;20089;-74
2022/01/06 04:14:49;;;;;;;9.07;1.85;;;-1.60;99.90;;;;;;5007799;28;20064;-75
2022/01/06 04:17:15;;;;;;;4.93;1.95;;;-1.40;99.90;;;;;;5013323;28;20022;-75
2022/01/06 04:19:40;;;;;;;14.25;2.88;;;-1.20;99.90;;;;;;5016437;28;20176;-75
2022/01/06 04:22:06;;;;;;;12.93;2.15;;;-1.10;99.90;;;;;;5016614;28;20504;-75
2022/01/06 04:24:32;;;;;;;8.90;1.70;;;-1.10;99.90;;;;;;5016615;28;20029;-75
2022/01/06 04:26:58;;;;;;;20.08;2.53;;;-1.00;99.90;;;;;;4998894;28;20393;-74
2022/01/06 04:29:23;;;;;;;13.00;3.03;;;-0.80;99.90;;;;;;5016565;28;20029;-75
2022/01/06 04:31:49;;;;;;;14.10;1.77;;;-0.70;99.90;;;;;;5016458;28;20070;-75
2022/01/06 04:34:14;;;;;;;12.20;1.50;;;-0.70;99.90;;;;;;5015187;28;20024;-74
2022/01/06 04:36:46;;;;;;;12.90;1.50;;;-0.60;99.90;;;;;;5016390;28;20100;-75
2022/01/06 04:39:12;;;;;;;14.73;3.50;;;-0.60;99.90;;;;;;5016279;28;20022;-75
2022/01/06 04:41:37;;;;;;;19.92;3.03;;;-0.60;99.90;;;;;;5016868;28;20101;-75
2022/01/06 04:44:03;;;;;;;18.25;1.95;;;-0.60;99.90;;;;;;5016525;28;20034;-75
2022/01/06 04:46:29;;;;;;;16.95;1.73;;;-0.80;99.90;;;;;;5016165;28;20034;-75
2022/01/06 04:48:54;;;;;;;13.48;2.53;;;-0.90;99.90;;;;;;5016130;28;20030;-75
2022/01/06 04:51:20;;;;;;;19.98;1.98;;;-1.00;99.90;;;;;;5016148;28;20069;-75
2022/01/06 04:53:45;;;;;;;25.95;2.90;;;-1.00;99.90;;;;;;5016146;28;20025;-75
2022/01/06 04:56:11;;;;;;;15.63;1.45;;;-0.90;99.90;;;;;;5016316;28;20109;-74
2022/01/06 04:58:36;;;;;;;10.45;1.75;;;-1.00;99.90;;;;;;5015991;28;20026;-74
2022/01/06 05:01:02;;;;;;;16.98;2.75;;;-1.00;99.90;;;;;;5015865;28;20025;-75
2022/01/06 05:03:27;;;;;;;14.18;1.92;;;-1.10;99.90;;;;;;5016452;28;20025;-75
2022/01/06 05:05:53;;;;;;;18.55;2.08;;;-1.10;99.90;;;;;;5016135;28;20022;-75
2022/01/06 05:08:18;;;;;;;23.73;2.35;;;-1.30;99.90;;;;;;5015705;28;20049;-74
2022/01/06 05:10:44;;;;;;;14.73;2.08;;;-1.20;99.90;;;;;;5015713;28;20022;-75
2022/01/06 05:13:10;;;;;;;21.30;2.30;;;-1.20;99.90;;;;;;5015692;28;20022;-74
2022/01/06 05:15:35;;;;;;;20.27;2.28;;;-1.30;99.90;;;;;;5016239;28;20076;-75
2022/01/06 05:18:01;;;;;;;18.95;2.47;;;-1.30;99.90;;;;;;5015183;28;20397;-75
2022/01/06 05:20:27;;;;;;;18.33;3.92;;;-1.30;99.90;;;;;;5015480;28;20045;-75
2022/01/06 05:22:56;;;;;;;21.52;3.00;;;-1.30;99.90;;;;;;4998005;28;20033;-75
2022/01/06 05:25:26;;;;;;;16.52;2.22;;;-1.20;99.90;;;;;;5015510;28;20037;-75
2022/01/06 05:27:53;;;;;;;20.80;2.85;;;-1.10;99.90;;;;;;5015186;28;20061;-74
2022/01/06 05:30:19;;;;;;;12.52;2.10;;;-1.20;99.90;;;;;;5015357;28;20032;-75
2022/01/06 05:32:44;;;;;;;12.63;2.15;;;-1.30;99.90;;;;;;5015359;28;20022;-75
2022/01/06 05:35:10;;;;;;;12.32;2.65;;;-1.50;99.90;;;;;;5015258;28;20433;-75
2022/01/06 05:37:36;;;;;;;19.77;2.30;;;-1.60;99.90;;;;;;5015138;28;20029;-74
2022/01/06 05:40:02;;;;;;;161.82;73.15;;;-1.70;99.90;;;;;;5014856;28;20034;-74
2022/01/06 05:42:28;;;;;;;45.55;14.82;;;-1.80;99.90;;;;;;5015141;28;20026;-74
2022/01/06 05:44:53;;;;;;;19.35;6.97;;;-1.90;99.90;;;;;;5015110;28;20370;-75
2022/01/06 05:47:19;;;;;;;13.52;6.18;;;-1.90;99.90;;;;;;5015017;28;20140;-75
2022/01/06 05:49:44;;;;;;;31.73;10.93;;;-2.00;99.90;;;;;;5014989;28;20097;-75
2022/01/06 05:52:10;;;;;;;69.38;20.75;;;-2.20;99.90;;;;;;5014959;28;20390;-74
2022/01/06 05:54:36;;;;;;;81.40;25.17;;;-2.40;99.90;;;;;;5015184;28;20024;-75
2022/01/06 05:57:01;;;;;;;101.10;29.80;;;-2.50;99.90;;;;;;5015156;28;20037;-75
2022/01/06 05:59:29;;;;;;;112.97;37.50;;;-2.60;99.90;;;;;;5015104;28;20485;-75
2022/01/06 06:01:55;;;;;;;117.20;39.85;;;-2.70;99.90;;;;;;5014767;28;20082;-74
2022/01/06 06:04:20;;;;;;;100.05;30.58;;;-2.70;99.90;;;;;;5014801;28;20161;-74
2022/01/06 06:06:46;;;;;;;77.72;23.23;;;-2.80;99.90;;;;;;5014692;28;20032;-75
2022/01/06 06:09:12;;;;;;;101.18;32.40;;;-2.80;99.90;;;;;;5014575;28;20018;-75
2022/01/06 06:11:37;;;;;;;92.05;31.55;;;-2.90;99.90;;;;;;5014614;28;20433;-74
2022/01/06 06:14:03;;;;;;;94.53;33.38;;;-2.90;99.90;;;;;;5015090;28;20022;-75
2022/01/06 06:16:28;;;;;;;77.43;30.88;;;-3.00;99.90;;;;;;5014620;28;20026;-75
2022/01/06 06:18:54;;;;;;;68.05;28.75;;;-3.00;99.90;;;;;;5014398;28;20037;-74
2022/01/06 06:21:19;;;;;;;80.85;28.55;;;-3.00;99.90;;;;;;5054842;22;20087;-71
2022/01/06 06:23:45;;;;;;;69.70;28.25;;;-3.00;99.90;;;;;;5034119;28;20075;-71
2022/01/06 06:26:11;;;;;;;58.55;24.65;;;-3.00;99.90;;;;;;5034277;28;20101;-70
2022/01/06 06:28:37;;;;;;;51.92;23.77;;;-3.00;99.90;;;;;;5032804;28;20022;-71
2022/01/06 06:31:02;;;;;;;56.10;22.80;;;-3.10;99.90;;;;;;5033861;28;20075;-71
2022/01/06 06:33:28;;;;;;;45.13;17.80;;;-3.10;99.90;;;;;;5033869;28;20481;-71
2022/01/06 06:35:54;;;;;;;38.20;15.80;;;-3.10;99.90;;;;;;5033877;28;20057;-70
2022/01/06 06:38:20;;;;;;;34.25;13.07;;;-3.20;99.90;;;;;;5032590;28;20484;-71
2022/01/06 06:40:45;;;;;;;29.55;11.15;;;-3.20;99.90;;;;;;5032983;28;20033;-71
2022/01/06 06:43:14;;;;;;;28.50;10.30;;;-3.30;99.90;;;;;;5033759;28;20374;-70
2022/01/06 06:45:41;;;;;;;29.15;9.77;;;-3.30;99.90;;;;;;5033743;28;20036;-70
2022/01/06 06:48:07;;;;;;;26.10;9.20;;;-3.30;99.90;;;;;;5033654;28;20029;-71
2022/01/06 06:50:33;;;;;;;53.00;18.95;;;-3.40;99.90;;;;;;5033769;28;20017;-71
2022/01/06 06:52:58;;;;;;;17.35;4.57;;;-3.30;99.90;;;;;;5033695;28;20079;-70
2022/01/06 06:55:24;;;;;;;26.30;3.40;;;-3.20;99.90;;;;;;5033869;28;20072;-70
2022/01/06 06:57:50;;;;;;;7.40;2.60;;;-3.10;99.90;;;;;;5033545;28;20109;-70
2022/01/06 07:00:15;;;;;;;15.27;3.28;;;-3.00;99.90;;;;;;5033684;28;20061;-71
2022/01/06 07:02:41;;;;;;;18.90;3.88;;;-3.10;99.90;;;;;;5033445;28;20051;-70
2022/01/06 07:05:08;;;;;;;10.63;3.20;;;-3.10;99.90;;;;;;5033737;28;20039;-71
2022/01/06 07:07:33;;;;;;;19.02;3.38;;;-3.10;99.90;;;;;;5033630;28;20500;-70
2022/01/06 07:09:59;;;;;;;13.70;4.10;;;-3.20;99.90;;;;;;5032017;28;20022;-71
2022/01/06 07:12:25;;;;;;;8.77;3.03;;;-3.30;99.90;;;;;;5033604;28;20018;-70
2022/01/06 07:14:50;;;;;;;10.15;2.72;;;-3.30;99.90;;;;;;5032846;28;20465;-71
2022/01/06 07:17:16;;;;;;;8.77;2.50;;;-3.40;99.90;;;;;;5032045;28;20033;-70
2022/01/06 07:19:41;;;;;;;12.63;3.08;;;-3.40;99.90;;;;;;5033280;28;20034;-70
2022/01/06 07:22:07;;;;;;;13.45;2.63;;;-3.50;99.90;;;;;;5033254;28;20060;-70
2022/01/06 07:24:34;;;;;;;21.73;2.95;;;-3.50;99.90;;;;;;5033227;28;20032;-70
2022/01/06 07:27:00;;;;;;;10.90;3.15;;;-3.50;99.90;;;;;;5033161;28;20033;-70
2022/01/06 07:29:27;;;;;;;22.63;2.72;;;-3.60;99.90;;;;;;5033063;28;20017;-71
2022/01/06 07:31:52;;;;;;;18.88;2.53;;;-3.50;99.90;;;;;;5033407;28;20030;-70
2022/01/06 07:34:18;;;;;;;10.65;2.92;;;-3.50;99.90;;;;;;5033083;28;20439;-70
2022/01/06 07:36:44;;;;;;;9.30;3.00;;;-3.50;99.90;;;;;;5033042;28;20480;-70
2022/01/06 07:39:09;;;;;;;19.95;3.55;;;-3.40;99.90;;;;;;5033083;28;20025;-70
2022/01/06 07:41:35;;;;;;;11.15;2.60;;;-3.40;99.90;;;;;;5033235;28;20018;-70
2022/01/06 07:44:02;;;;;;;13.23;3.00;;;-3.40;99.90;;;;;;5032564;28;20025;-71
2022/01/06 07:46:28;;;;;;;23.15;4.13;;;-3.30;99.90;;;;;;5032881;28;20017;-71
2022/01/06 07:48:57;;;;;;;14.13;4.30;;;-3.30;99.90;;;;;;5032978;28;20017;-70
2022/01/06 07:51:28;;;;;;;17.10;3.50;;;-3.30;99.90;;;;;;5033470;28;20025;-71
2022/01/06 07:53:55;;;;;;;16.10;2.40;;;-3.30;99.90;;;;;;5036897;28;20067;-70
2022/01/06 07:56:21;;;;;;;5.28;2.85;;;-3.30;99.90;;;;;;5036822;28;20033;-71
2022/01/06 07:58:48;;;;;;;11.60;2.33;;;-3.30;99.90;;;;;;5036823;28;20469;-71
2022/01/06 08:01:14;;;;;;;14.55;3.00;;;-3.30;99.90;;;;;;5036713;28;20026;-71
2022/01/06 08:03:40;;;;;;;18.75;2.67;;;-3.20;99.90;;;;;;5037089;28;20049;-70
2022/01/06 08:06:06;;;;;;;14.88;2.38;;;-3.10;99.90;;;;;;5036871;28;20040;-71
2022/01/06 08:08:32;;;;;;;11.10;2.53;;;-3.10;99.90;;;;;;5036693;28;20057;-70
2022/01/06 08:10:57;;;;;;;12.30;3.38;;;-3.10;99.90;;;;;;5036571;28;20068;-70
2022/01/06 08:13:23;;;;;;;17.70;4.22;;;-3.10;99.90;;;;;;5036851;28;20033;-71
2022/01/06 08:15:48;;;;;;;10.80;3.08;;;-3.10;99.90;;;;;;5036522;28;20022;-71
2022/01/06 08:18:14;;;;;;;17.80;2.78;;;-3.10;99.90;;;;;;5036503;28;20040;-70
2022/01/06 08:20:40;;;;;;;18.48;3.00;;;-3.00;99.90;;;;;;5036363;28;20045;-70
2022/01/06 08:23:06;;;;;;;8.77;3.08;;;-3.00;99.90;;;;;;5036428;28;20461;-70
2022/01/06 08:25:32;;;;;;;20.02;3.92;;;-2.90;99.90;;;;;;5036416;28;20030;-70
2022/01/06 08:27:58;;;;;;;24.23;2.53;;;-2.80;99.90;;;;;;5036250;28;20543;-71
2022/01/06 08:30:23;;;;;;;13.75;3.00;;;-2.70;99.90;;;;;;5036158;28;20030;-71
2022/01/06 08:32:49;;;;;;;14.38;2.55;;;-2.70;99.90;;;;;;5036335;28;20052;-70
2022/01/06 08:35:15;;;;;;;12.75;3.22;;;-2.70;99.90;;;;;;5036492;28;20031;-70
2022/01/06 08:37:40;;;;;;;12.15;2.83;;;-2.60;99.90;;;;;;5036769;28;20074;-71
2022/01/06 08:40:07;;;;;;;16.73;3.05;;;-2.50;99.90;;;;;;5036149;28;20492;-70
2022/01/06 08:42:33;;;;;;;25.23;4.97;;;-2.50;99.90;;;;;;5036089;28;20032;-70
2022/01/06 08:44:58;;;;;;;19.77;5.15;;;-2.40;99.90;;;;;;5036239;28;20030;-71
2022/01/06 08:47:24;;;;;;;13.52;4.15;;;-2.40;99.90;;;;;;5036161;28;20029;-70
2022/01/06 08:49:50;;;;;;;21.38;3.40;;;-2.30;99.90;;;;;;5036076;28;20082;-70
2022/01/06 08:52:15;;;;;;;26.27;3.58;;;-2.20;99.90;;;;;;5035861;28;20414;-71
2022/01/06 08:54:41;;;;;;;17.30;3.20;;;-2.20;99.90;;;;;;5036405;28;20410;-70
2022/01/06 08:57:06;;;;;;;9.50;3.00;;;-2.10;99.90;;;;;;5036084;28;20029;-70
2022/01/06 08:59:32;;;;;;;12.85;2.83;;;-2.10;99.90;;;;;;5035650;28;20025;-71
2022/01/06 09:01:58;;;;;;;11.02;2.50;;;-2.00;99.90;;;;;;5035738;28;20025;-70
2022/01/06 09:04:24;;;;;;;17.80;2.83;;;-2.00;99.90;;;;;;5034798;28;20033;-70
2022/01/06 09:06:51;;;;;;;13.15;3.08;;;-1.80;99.90;;;;;;5035776;28;20366;-70
2022/01/06 09:09:18;;;;;;;26.98;4.18;;;-1.70;99.90;;;;;;5035924;28;20096;-70
2022/01/06 09:11:44;;;;;;;10.38;3.00;;;-1.60;99.90;;;;;;5035491;28;20029;-71
2022/01/06 09:14:10;;;;;;;17.35;3.15;;;-1.50;99.90;;;;;;5035452;28;20465;-71
2022/01/06 09:16:37;;;;;;;20.13;2.67;;;-1.40;99.90;;;;;;5035494;28;20036;-70
2022/01/06 09:19:03;;;;;;;11.05;2.92;;;-1.40;99.90;;;;;;5035897;28;20033;-70
2022/01/06 09:21:28;;;;;;;12.88;3.03;;;-1.30;99.90;;;;;;5035133;28;20489;-71
2022/01/06 09:23:57;;;;;;;21.17;4.00;;;-1.20;99.90;;;;;;5034816;28;20057;-71
2022/01/06 09:26:22;;;;;;;12.60;3.15;;;-1.10;99.90;;;;;;5033979;28;20032;-70
2022/01/06 09:28:48;;;;;;;23.75;4.13;;;-1.00;99.90;;;;;;5035147;28;20393;-71
2022/01/06 09:31:13;;;;;;;20.98;4.50;;;-0.90;99.90;;;;;;5033938;28;20470;-71
2022/01/06 09:33:39;;;;;;;24.13;3.35;;;-0.80;99.90;;;;;;5035691;28;20032;-70
2022/01/06 09:36:05;;;;;;;18.65;3.90;;;-0.80;99.90;;;;;;5035049;28;20424;-71
2022/01/06 09:38:30;;;;;;;23.00;4.18;;;-0.60;99.90;;;;;;5035058;28;20030;-71
2022/01/06 09:40:56;;;;;;;18.73;3.55;;;-0.50;99.90;;;;;;5035033;28;20500;-70
2022/01/06 09:43:25;;;;;;;16.50;3.20;;;-0.40;99.90;;;;;;5034931;28;20029;-70
2022/01/06 09:45:53;;;;;;;27.85;4.88;;;-0.40;99.90;;;;;;5035417;28;20033;-71
2022/01/06 09:48:22;;;;;;;20.02;3.67;;;-0.30;99.90;;;;;;5034880;28;20104;-71
2022/01/06 09:50:48;;;;;;;13.45;3.03;;;-0.20;99.90;;;;;;5034395;28;20029;-70
2022/01/06 09:53:14;;;;;;;29.10;3.38;;;-0.20;99.90;;;;;;5034747;28;20388;-71
2022/01/06 09:55:40;;;;;;;27.52;3.92;;;-0.20;99.90;;;;;;5034712;28;20075;-70
2022/01/06 09:58:06;;;;;;;20.35;3.55;;;-0.20;99.90;;;;;;5033392;28;20036;-70
2022/01/06 10:00:33;;;;;;;14.52;3.15;;;-0.10;99.90;;;;;;5034547;28;20030;-70
2022/01/06 10:03:05;;;;;;;24.73;4.32;;;-0.10;99.90;;;;;;5034864;28;20034;-68
2022/01/06 10:05:42;;;;;;;30.75;5.15;;;-0.10;99.90;;;;;;5034703;28;20128;-71
2022/01/06 10:08:10;;;;;;;18.25;4.30;;;0.00;99.90;;;;;;5033228;28;20025;-70
2022/01/06 10:10:36;;;;;;;19.48;5.10;;;0.20;99.90;;;;;;5034878;28;20022;-71
2022/01/06 10:13:07;;;;;;;21.80;3.75;;;0.20;99.90;;;;;;5034395;28;20504;-71
2022/01/06 10:15:34;;;;;;;9.63;2.85;;;0.20;99.90;;;;;;5034312;28;20076;-70
2022/01/06 10:18:14;;;;;;;20.85;3.95;;;0.30;99.90;;;;;;5034298;28;20072;-70
2022/01/06 10:20:40;;;;;;;38.20;4.07;;;0.40;99.90;;;;;;5034077;28;20493;-71
2022/01/06 10:23:14;;;;;;;17.40;3.70;;;0.40;99.90;;;;;;5034214;28;20216;-70
2022/01/06 10:25:48;;;;;;;17.08;3.40;;;0.40;99.90;;;;;;5034441;28;20026;-71
2022/01/06 10:28:20;;;;;;;19.42;3.28;;;0.50;99.90;;;;;;5032831;28;20068;-71
2022/01/06 10:30:49;;;;;;;35.22;4.45;;;0.60;99.90;;;;;;5032698;28;20116;-71
2022/01/06 10:33:24;;;;;;;7.13;2.90;;;0.60;99.90;;;;;;5034300;28;20116;-71
2022/01/06 10:35:50;;;;;;;31.15;3.42;;;0.70;99.90;;;;;;5034469;28;20389;-71
2022/01/06 10:38:26;;;;;;;19.00;3.90;;;0.70;99.90;;;;;;5033946;28;20029;-70
2022/01/06 10:40:51;;;;;;;21.50;3.97;;;0.80;99.90;;;;;;5032576;28;20393;-71
2022/01/06 10:43:17;;;;;;;14.77;2.63;;;0.80;99.90;;;;;;5032597;28;20022;-71
2022/01/06 10:45:43;;;;;;;5.72;2.42;;;0.90;99.90;;;;;;5033769;28;20481;-71
2022/01/06 10:48:08;;;;;;;11.70;2.95;;;1.00;99.90;;;;;;5033671;28;20442;-71
2022/01/06 10:50:37;;;;;;;14.85;2.38;;;1.00;99.90;;;;;;5033734;28;20100;-69
2022/01/06 10:53:07;;;;;;;14.20;2.88;;;1.10;99.90;;;;;;5033984;28;20030;-68
2022/01/06 10:55:35;;;;;;;12.57;3.17;;;1.10;99.90;;;;;;5033255;28;20029;-68
2022/01/06 10:58:16;;;;;;;13.60;2.92;;;1.20;99.90;;;;;;5033610;28;20025;-68
2022/01/06 11:00:47;;;;;;;14.93;2.95;;;1.30;99.90;;;;;;5033647;28;20489;-71
2022/01/06 11:03:17;;;;;;;13.27;2.88;;;1.40;99.90;;;;;;5033749;28;20104;-71
2022/01/06 11:05:55;;;;;;;10.48;2.88;;;1.40;99.90;;;;;;5033464;28;20032;-71
2022/01/06 11:08:25;;;;;;;15.73;2.15;;;1.50;99.90;;;;;;5033700;28;20033;-71
2022/01/06 11:13:49;;;;;;;10.07;2.58;;;1.60;99.90;;;;;;5014252;28;20397;-71
2022/01/06 11:16:20;;;;;;;13.20;2.20;;;1.60;99.90;;;;;;5020491;28;20072;-72
2022/01/06 11:18:51;;;;;;;6.65;2.17;;;1.70;99.90;;;;;;5026291;28;20061;-72
2022/01/06 11:21:22;;;;;;;17.08;2.55;;;1.80;99.90;;;;;;5026495;28;20030;-73
2022/01/06 11:23:48;;;;;;;8.73;2.20;;;1.80;99.90;;;;;;5019222;28;20057;-72
2022/01/06 11:26:22;;;;;;;4.38;1.95;;;1.90;99.90;;;;;;5021548;28;20049;-73
2022/01/06 11:28:58;;;;;;;9.55;2.10;;;2.00;99.90;;;;;;5022605;28;20061;-73
2022/01/06 11:31:25;;;;;;;8.02;2.03;;;2.10;99.90;;;;;;5022084;28;20021;-73
2022/01/06 11:33:53;;;;;;;11.30;2.10;;;2.20;99.90;;;;;;5024141;28;20400;-69
2022/01/06 11:36:25;;;;;;;7.03;1.80;;;2.30;99.90;;;;;;5021870;28;20040;-69
2022/01/06 11:38:52;;;;;;;10.88;1.67;;;2.40;99.90;;;;;;5019232;28;20064;-71
2022/01/06 11:41:18;;;;;;;11.52;1.90;;;2.40;99.90;;;;;;5023721;28;20028;-72
2022/01/06 11:43:47;;;;;;;4.45;1.33;;;2.60;99.90;;;;;;5022027;28;20028;-72
2022/01/06 11:46:13;;;;;;;7.80;1.60;;;2.70;99.90;;;;;;5021913;28;20481;-71
2022/01/06 11:48:50;;;;;;;10.57;2.28;;;2.90;99.90;;;;;;5026049;28;20041;-72
2022/01/06 11:51:42;;;;;;;10.38;2.97;;;3.10;99.90;;;;;;5020924;28;20033;-72
2022/01/06 11:54:26;;;;;;;12.27;2.30;;;3.20;99.90;;;;;;5018193;28;20041;-72
2022/01/06 11:56:52;;;;;;;8.30;1.98;;;3.30;99.90;;;;;;5026676;28;20079;-72
2022/01/06 11:59:34;;;;;;;4.15;1.40;;;3.30;99.90;;;;;;5032670;28;20029;-72
2022/01/06 12:02:01;;;;;;;7.57;1.80;;;3.10;99.90;;;;;;5032883;28;20112;-72
2022/01/06 12:04:27;;;;;;;7.53;2.08;;;3.10;99.90;;;;;;5033183;28;20080;-72
2022/01/06 12:07:07;;;;;;;6.35;2.22;;;3.10;99.90;;;;;;5032761;28;20037;-72
2022/01/06 12:09:33;;;;;;;9.57;1.70;;;3.10;99.90;;;;;;5032837;28;20032;-72
2022/01/06 12:12:04;;;;;;;7.05;1.67;;;3.30;99.90;;;;;;5032755;28;20108;-72
2022/01/06 12:14:30;;;;;;;3.90;1.55;;;3.40;99.90;;;;;;5032837;28;20396;-72
2022/01/06 12:17:04;;;;;;;20.27;3.05;;;3.40;99.90;;;;;;5032692;28;20117;-72
2022/01/06 12:19:30;;;;;;;14.60;1.65;;;3.50;99.90;;;;;;5032569;28;20037;-72
2022/01/06 12:21:56;;;;;;;12.90;1.90;;;3.50;99.90;;;;;;5032710;28;20056;-72
2022/01/06 12:24:21;;;;;;;8.43;1.42;;;3.50;99.90;;;;;;5032645;28;20037;-72
2022/01/06 12:26:47;;;;;;;4.65;1.23;;;3.50;99.90;;;;;;5031249;28;20025;-72
2022/01/06 12:29:21;;;;;;;10.80;2.10;;;3.60;99.90;;;;;;5032509;28;20141;-72
2022/01/06 12:31:48;;;;;;;8.35;2.13;;;3.60;99.90;;;;;;5031332;28;20107;-72
2022/01/06 12:34:15;;;;;;;9.68;1.73;;;3.70;99.90;;;;;;5032863;28;20022;-72
2022/01/06 12:36:43;;;;;;;8.82;2.42;;;3.70;99.90;;;;;;5032622;28;20473;-72
2022/01/06 12:39:17;;;;;;;5.88;1.33;;;3.70;99.90;;;;;;5034238;28;20057;-72
2022/01/06 12:41:44;;;;;;;5.00;1.58;;;3.90;99.90;;;;;;5034836;28;20116;-72
2022/01/06 12:44:10;;;;;;;14.10;1.45;;;4.00;99.90;;;;;;5036090;28;20504;-72
2022/01/06 12:46:39;;;;;;;7.93;1.88;;;4.10;99.90;;;;;;5035986;28;20061;-72
2022/01/06 12:49:09;;;;;;;7.32;2.08;;;4.30;99.90;;;;;;5034762;28;20026;-72
2022/01/06 12:51:37;;;;;;;6.78;1.65;;;4.60;99.90;;;;;;5035882;28;20021;-72
2022/01/06 12:54:13;;;;;;;11.88;1.45;;;4.70;99.90;;;;;;5036176;28;20024;-72